Time;durP1;ratioP1;P1;durP2;ratioP2;P2;SDS_P1;SDS_P2;PMS_P1;PMS_P2;Temp;Humidity;BMP_temperature;BMP_pressure;BME280_temperature;BME280_humidity;BME280_pressure;Samples;Min_cycle;Max_cycle;Signal;HPM_P1;HPM_P2
2024/04/13 00:01:18;;;;;;;;;;;;;;;15.94;53.96;101578.22;5520254;26;1107;-48
2024/04/13 00:03:44;;;;;;;;;;;;;;;16.96;55.51;101582.97;5495380;26;1153;-50
2024/04/13 00:06:10;;;;;;;;;;;;;;;17.35;54.38;101581.47;5504611;26;1218;-49
2024/04/13 00:08:35;;;;;;;;;;;;;;;16.74;54.93;101590.44;5510702;26;1177;-50
2024/04/13 00:11:01;;;;;;;;;;;;;;;16.37;55.04;101589.97;5495355;26;1929;-48
2024/04/13 00:13:27;;;;;;;;;;;;;;;16.24;54.61;101588.06;5516789;26;1279;-47
2024/04/13 00:15:56;;;;;;;;;;;;;;;16.08;54.50;101584.56;5498063;26;1241;-46
2024/04/13 00:18:22;;;;;;;;;;;;;;;16.97;55.67;101593.50;5518254;26;1189;-48
2024/04/13 00:20:47;;;;;;;;;;;;;;;17.26;54.79;101595.34;5497039;26;1258;-50
2024/04/13 00:23:12;;;;;;;;;;;;;;;16.65;55.16;101588.31;5495278;26;1191;-47
2024/04/13 00:25:38;;;;;;;;;;;;;;;16.36;55.16;101586.47;5527348;26;1606;-47
2024/04/13 00:28:05;;;;;;;;;;;;;;;16.21;54.75;101587.38;5512384;26;1154;-49
2024/04/13 00:30:31;;;;;;;;;;;;;;;16.10;54.24;101583.53;5493717;26;1825;-51
2024/04/13 00:32:56;;;;;;;;;;;;;;;16.01;54.20;101584.06;5495027;26;1267;-49
2024/04/13 00:35:22;;;;;;;;;;;;;;;16.87;55.56;101584.38;5495490;26;1301;-47
2024/04/13 00:37:48;;;;;;;;;;;;;;;17.36;54.32;101580.53;5495319;26;1118;-50
2024/04/13 00:40:13;;;;;;;;;;;;;;;16.72;55.05;101576.41;5502724;26;1272;-48
2024/04/13 00:42:39;;;;;;;;;;;;;;;16.47;54.71;101577.88;5512302;26;1280;-49
2024/04/13 00:45:05;;;;;;;;;;;;;;;16.24;54.79;101582.75;5494610;26;1260;-47
2024/04/13 00:47:32;;;;;;;;;;;;;;;16.11;54.37;101579.09;5494853;26;1101;-49
2024/04/13 00:49:59;;;;;;;;;;;;;;;16.03;54.87;101582.19;5463130;26;1829;-48
2024/04/13 00:52:25;;;;;;;;;;;;;;;17.30;54.88;101586.22;5463511;26;1311;-48
2024/04/13 00:54:52;;;;;;;;;;;;;;;17.40;54.37;101580.34;5462825;26;1578;-46
2024/04/13 00:57:18;;;;;;;;;;;;;;;16.72;54.89;101573.75;5494915;26;1170;-50
2024/04/13 00:59:44;;;;;;;;;;;;;;;16.48;54.69;101579.56;5494817;26;1174;-55
2024/04/13 01:02:11;;;;;;;;;;;;;;;16.33;54.28;101581.31;5462945;26;1161;-46
2024/04/13 01:04:36;;;;;;;;;;;;;;;16.16;54.33;101569.06;5462862;26;1186;-51
2024/04/13 01:07:03;;;;;;;;;;;;;;;16.03;54.16;101575.06;5494976;26;1279;-53
2024/04/13 01:09:28;;;;;;;;;;;;;;;17.11;55.38;101578.53;5527694;26;1489;-52
2024/04/13 01:11:54;;;;;;;;;;;;;;;17.37;54.10;101576.03;5516066;26;1837;-53
2024/04/13 01:14:20;;;;;;;;;;;;;;;16.75;54.78;101578.00;5490417;26;1300;-51
2024/04/13 01:16:45;;;;;;;;;;;;;;;16.39;54.89;101575.69;5494352;26;1157;-48
2024/04/13 01:19:11;;;;;;;;;;;;;;;16.27;54.69;101576.38;5494445;26;1260;-50
2024/04/13 01:21:37;;;;;;;;;;;;;;;16.17;54.27;101570.75;5494763;26;1239;-47
2024/04/13 01:24:06;;;;;;;;;;;;;;;16.47;55.68;101571.69;5486775;26;1102;-50
2024/04/13 01:26:37;;;;;;;;;;;;;;;17.71;54.01;101571.25;5515323;26;1333;-48
2024/04/13 01:29:06;;;;;;;;;;;;;;;16.98;54.87;101576.59;5506920;26;1378;-49
2024/04/13 01:31:35;;;;;;;;;;;;;;;16.57;54.91;101572.84;5507523;26;1847;-52
2024/04/13 01:34:03;;;;;;;;;;;;;;;16.36;54.68;101565.25;5529690;26;1237;-48
2024/04/13 01:36:39;;;;;;;;;;;;;;;16.21;54.43;101561.69;5530437;26;1153;-52
2024/04/13 01:39:07;;;;;;;;;;;;;;;16.07;54.21;101561.59;5494174;26;1159;-50
2024/04/13 01:41:53;;;;;;;;;;;;;;;15.98;53.93;101560.31;5493603;26;1273;-48
2024/04/13 01:44:19;;;;;;;;;;;;;;;16.85;55.71;101557.91;5493603;26;1950;-47
2024/04/13 01:46:44;;;;;;;;;;;;;;;17.52;53.71;101555.59;5517726;26;1320;-50
2024/04/13 01:49:10;;;;;;;;;;;;;;;16.77;54.81;101550.41;5494180;26;1267;-53
2024/04/13 01:51:35;;;;;;;;;;;;;;;16.40;54.84;101547.31;5518504;26;1840;-49
2024/04/13 01:54:01;;;;;;;;;;;;;;;16.21;54.87;101544.88;5494415;26;1185;-47
2024/04/13 01:56:27;;;;;;;;;;;;;;;16.08;54.47;101550.06;5493467;26;1280;-51
2024/04/13 01:58:53;;;;;;;;;;;;;;;16.03;54.08;101550.34;5494041;26;1577;-47
2024/04/13 02:01:18;;;;;;;;;;;;;;;16.94;55.72;101558.28;5494336;26;1287;-51
2024/04/13 02:03:44;;;;;;;;;;;;;;;17.50;54.32;101562.81;5493835;26;1162;-49
2024/04/13 02:06:09;;;;;;;;;;;;;;;16.82;54.70;101559.88;5493579;26;1102;-49
2024/04/13 02:08:36;;;;;;;;;;;;;;;16.46;54.82;101565.53;5493816;26;1363;-46
2024/04/13 02:11:02;;;;;;;;;;;;;;;16.24;54.79;101565.94;5500610;26;1834;-48
2024/04/13 02:13:30;;;;;;;;;;;;;;;16.16;54.28;101569.06;5510874;26;1287;-48
2024/04/13 02:15:56;;;;;;;;;;;;;;;16.02;54.17;101565.41;5494237;26;1198;-50
2024/04/13 02:18:21;;;;;;;;;;;;;;;15.91;54.02;101558.00;5493493;26;1286;-50
2024/04/13 02:20:47;;;;;;;;;;;;;;;16.93;55.51;101560.09;5493617;26;1267;-52
2024/04/13 02:23:13;;;;;;;;;;;;;;;17.38;54.46;101553.84;5494079;26;1367;-49
2024/04/13 02:25:41;;;;;;;;;;;;;;;16.68;55.21;101556.28;5518113;26;1284;-47
2024/04/13 02:28:07;;;;;;;;;;;;;;;16.40;54.92;101547.31;5513549;26;1158;-50
2024/04/13 02:30:32;;;;;;;;;;;;;;;16.24;54.42;101550.00;5522573;26;1868;-48
2024/04/13 02:32:58;;;;;;;;;;;;;;;16.38;55.75;101546.56;5493539;26;1249;-51
2024/04/13 02:35:23;;;;;;;;;;;;;;;17.66;54.09;101552.06;5493424;26;1330;-52
2024/04/13 02:37:49;;;;;;;;;;;;;;;17.01;54.83;101547.19;5493873;26;1102;-51
2024/04/13 02:40:16;;;;;;;;;;;;;;;16.56;54.95;101549.91;5493054;26;1194;-48
2024/04/13 02:42:45;;;;;;;;;;;;;;;16.35;54.65;101550.22;5493401;26;1288;-51
2024/04/13 02:45:10;;;;;;;;;;;;;;;16.15;54.42;101559.38;5502261;26;1234;-49
2024/04/13 02:47:37;;;;;;;;;;;;;;;16.07;54.27;101551.84;5508605;26;1162;-51
2024/04/13 02:50:03;;;;;;;;;;;;;;;17.20;55.03;101555.84;5493500;26;1876;-53
2024/04/13 02:52:29;;;;;;;;;;;;;;;17.16;54.13;101556.97;5493157;26;1158;-49
2024/04/13 02:54:55;;;;;;;;;;;;;;;16.67;54.98;101557.22;5491785;26;1276;-47
2024/04/13 02:57:20;;;;;;;;;;;;;;;16.38;54.66;101550.03;5493026;26;1477;-46
2024/04/13 02:59:46;;;;;;;;;;;;;;;16.28;54.36;101549.75;5492443;26;1190;-46
2024/04/13 03:02:12;;;;;;;;;;;;;;;16.05;54.48;101553.72;5492915;26;1105;-50
2024/04/13 03:04:38;;;;;;;;;;;;;;;16.03;53.95;101556.47;5492945;26;1252;-49
2024/04/13 03:07:03;;;;;;;;;;;;;;;15.95;53.97;101552.56;5493134;26;1294;-46
2024/04/13 03:09:29;;;;;;;;;;;;;;;17.05;55.19;101561.13;5492483;26;1320;-48
2024/04/13 03:11:56;;;;;;;;;;;;;;;17.50;53.86;101549.50;5513945;26;1848;-47
2024/04/13 03:14:21;;;;;;;;;;;;;;;16.74;54.85;101565.69;5504582;26;1269;-51
2024/04/13 03:16:47;;;;;;;;;;;;;;;16.48;54.69;101562.78;5507882;26;1151;-51
2024/04/13 03:19:15;;;;;;;;;;;;;;;16.25;54.49;101565.00;5493147;26;1243;-49
2024/04/13 03:21:41;;;;;;;;;;;;;;;16.13;54.47;101559.44;5497616;26;1238;-52
2024/04/13 03:24:06;;;;;;;;;;;;;;;15.99;54.25;101559.41;5502113;26;1280;-54
2024/04/13 03:26:32;;;;;;;;;;;;;;;16.01;55.21;101547.78;5507975;26;1264;-50
2024/04/13 03:28:57;;;;;;;;;;;;;;;17.36;54.98;101561.06;5492684;26;1394;-56
2024/04/13 03:31:23;;;;;;;;;;;;;;;16.95;54.74;101554.69;5493038;26;1868;-51
2024/04/13 03:33:48;;;;;;;;;;;;;;;16.58;54.67;101555.13;5492378;26;1125;-52
2024/04/13 03:36:14;;;;;;;;;;;;;;;16.30;54.42;101552.31;5492356;26;1046;-52
2024/04/13 03:38:40;;;;;;;;;;;;;;;16.16;54.30;101559.28;5500849;26;1242;-51
2024/04/13 03:41:06;;;;;;;;;;;;;;;16.03;54.33;101555.66;5507710;26;1171;-56
2024/04/13 03:43:32;;;;;;;;;;;;;;;15.95;54.47;101550.72;5492432;26;1189;-57
2024/04/13 03:45:58;;;;;;;;;;;;;;;17.22;54.67;101553.94;5513296;26;1582;-54
2024/04/13 03:48:24;;;;;;;;;;;;;;;17.22;54.07;101560.13;5495324;26;1175;-56
2024/04/13 03:50:50;;;;;;;;;;;;;;;16.66;54.78;101566.16;5492414;26;1872;-54
2024/04/13 03:53:15;;;;;;;;;;;;;;;16.37;54.64;101566.06;5516407;26;1174;-53
2024/04/13 03:55:41;;;;;;;;;;;;;;;16.18;54.46;101569.84;5492340;26;1166;-57
2024/04/13 03:58:06;;;;;;;;;;;;;;;15.98;54.46;101570.94;5492989;26;1217;-55
2024/04/13 04:00:32;;;;;;;;;;;;;;;16.32;55.80;101576.09;5497937;26;1170;-53
2024/04/13 04:02:57;;;;;;;;;;;;;;;17.57;53.90;101571.25;5497018;26;1153;-48
2024/04/13 04:05:23;;;;;;;;;;;;;;;17.00;54.41;101576.50;5493092;26;1308;-47
2024/04/13 04:07:48;;;;;;;;;;;;;;;17.36;54.58;101572.56;5495365;26;1170;-51
2024/04/13 04:10:14;;;;;;;;;;;;;;;16.21;54.38;101576.75;5519640;26;1849;-51
2024/04/13 04:12:39;;;;;;;;;;;;;;;15.89;52.64;101573.19;5502433;26;1093;-54
2024/04/13 04:15:05;;;;;;;;;;;;;;;16.84;54.60;101571.28;5519549;26;1154;-48
2024/04/13 04:17:31;;;;;;;;;;;;;;;16.07;53.57;101566.91;5495474;26;1166;-52
2024/04/13 04:19:56;;;;;;;;;;;;;;;15.82;52.01;101569.16;5519756;26;1328;-52
2024/04/13 04:22:22;;;;;;;;;;;;;;;15.80;51.65;101571.03;5502187;26;1181;-51
2024/04/13 04:24:47;;;;;;;;;;;;;;;16.51;52.85;101574.09;5529655;26;1491;-55
2024/04/13 04:27:13;;;;;;;;;;;;;;;15.88;51.89;101566.16;5514275;26;1237;-55
2024/04/13 04:29:40;;;;;;;;;;;;;;;17.52;53.77;101568.06;5513782;26;1527;-56
2024/04/13 04:32:06;;;;;;;;;;;;;;;16.60;53.45;101570.00;5526163;26;1604;-55
2024/04/13 04:34:32;;;;;;;;;;;;;;;16.21;51.85;101572.31;5512541;25;1410;-55
2024/04/13 04:36:57;;;;;;;;;;;;;;;15.98;50.88;101570.94;5501014;26;1357;-54
2024/04/13 04:39:23;;;;;;;;;;;;;;;16.88;52.00;101562.19;5515399;26;1494;-55
2024/04/13 04:41:48;;;;;;;;;;;;;;;16.17;51.42;101578.72;5503065;26;1406;-55
2024/04/13 04:44:14;;;;;;;;;;;;;;;15.84;50.49;101575.22;5503095;26;1429;-56
2024/04/13 04:46:39;;;;;;;;;;;;;;;16.75;51.95;101581.53;5505991;26;2835;-55
2024/04/13 04:49:05;;;;;;;;;;;;;;;16.41;51.82;101583.56;5506372;26;1053;-53
2024/04/13 04:51:31;;;;;;;;;;;;;;;16.12;50.51;101586.94;5523042;26;1828;-56
2024/04/13 04:53:58;;;;;;;;;;;;;;;17.07;52.18;101576.97;5517805;26;1394;-55
2024/04/13 04:56:23;;;;;;;;;;;;;;;16.27;51.41;101584.34;5499580;26;1473;-53
2024/04/13 04:58:51;;;;;;;;;;;;;;;16.08;49.96;101579.25;5530738;26;1462;-54
2024/04/13 05:01:16;;;;;;;;;;;;;;;16.12;50.57;101584.31;5515070;26;1318;-55
2024/04/13 05:03:42;;;;;;;;;;;;;;;16.89;50.89;101588.66;5530463;26;1189;-55
2024/04/13 05:06:08;;;;;;;;;;;;;;;16.18;50.56;101582.25;5478084;26;1309;-56
2024/04/13 05:08:33;;;;;;;;;;;;;;;15.98;49.50;101593.03;5498248;26;1264;-54
2024/04/13 05:10:59;;;;;;;;;;;;;;;15.86;48.66;101586.63;5517358;26;1825;-54
2024/04/13 05:13:25;;;;;;;;;;;;;;;16.73;49.74;101585.22;5499973;26;1190;-54
2024/04/13 05:15:51;;;;;;;;;;;;;;;16.02;49.91;101585.75;5493520;26;1160;-52
2024/04/13 05:18:16;;;;;;;;;;;;;;;15.80;49.13;101573.69;5500914;26;2956;-53
2024/04/13 05:20:42;;;;;;;;;;;;;;;16.94;50.32;101584.88;5507024;26;1241;-52
2024/04/13 05:23:07;;;;;;;;;;;;;;;16.30;50.35;101584.16;5529489;26;1249;-53
2024/04/13 05:25:33;;;;;;;;;;;;;;;15.93;49.61;101583.63;5523292;26;1070;-53
2024/04/13 05:27:58;;;;;;;;;;;;;;;15.71;48.94;101576.88;5516947;26;1253;-52
2024/04/13 05:30:24;;;;;;;;;;;;;;;15.95;49.29;101576.44;5493840;26;1818;-50
2024/04/13 05:32:49;;;;;;;;;;;;;;;16.70;49.42;101580.94;5518294;26;1511;-55
2024/04/13 05:35:18;;;;;;;;;;;;;;;16.06;49.66;101571.38;5511609;26;1402;-50
2024/04/13 05:37:46;;;;;;;;;;;;;;;15.88;48.87;101582.06;5500987;26;1228;-52
2024/04/13 05:40:12;;;;;;;;;;;;;;;17.21;49.45;101585.00;5513775;26;1474;-52
2024/04/13 05:42:38;;;;;;;;;;;;;;;16.22;50.15;101587.28;5507828;26;1490;-53
2024/04/13 05:45:04;;;;;;;;;;;;;;;15.99;49.42;101586.81;5525145;26;1274;-52
2024/04/13 05:47:29;;;;;;;;;;;;;;;16.83;50.24;101594.34;5494266;26;2994;-53
2024/04/13 05:49:55;;;;;;;;;;;;;;;16.45;50.25;101582.41;5525406;26;1833;-50
2024/04/13 05:52:20;;;;;;;;;;;;;;;16.03;49.37;101580.38;5529283;26;1464;-52
2024/04/13 05:54:46;;;;;;;;;;;;;;;15.96;48.89;101584.31;5502581;26;1168;-52
2024/04/13 05:57:12;;;;;;;;;;;;;;;15.87;48.13;101590.13;5530438;26;1140;-53
2024/04/13 05:59:38;;;;;;;;;;;;;;;15.86;48.06;101586.63;5503006;26;1240;-55
2024/04/13 06:02:04;;;;;;;;;;;;;;;16.89;49.18;101593.97;5511222;26;1229;-56
2024/04/13 06:04:29;;;;;;;;;;;;;;;16.14;49.27;101594.81;5529182;26;1197;-58
2024/04/13 06:06:55;;;;;;;;;;;;;;;16.01;48.60;101592.03;5528378;26;1285;-48
2024/04/13 06:09:20;;;;;;;;;;;;;;;15.84;48.21;101588.50;5509654;26;1165;-49
2024/04/13 06:11:46;;;;;;;;;;;;;;;15.66;47.63;101591.22;5493444;26;1871;-46
2024/04/13 06:14:11;;;;;;;;;;;;;;;16.70;48.68;101588.91;5527314;26;1200;-51
2024/04/13 06:16:37;;;;;;;;;;;;;;;16.03;48.88;101590.16;5497623;26;2546;-49
2024/04/13 06:19:03;;;;;;;;;;;;;;;15.87;48.31;101588.31;5510243;26;1157;-47
2024/04/13 06:21:28;;;;;;;;;;;;;;;15.88;47.51;101590.03;5492929;26;1161;-49
2024/04/13 06:23:54;;;;;;;;;;;;;;;15.70;47.44;101589.25;5495228;26;1172;-48
2024/04/13 06:26:19;;;;;;;;;;;;;;;17.14;48.24;101594.31;5499567;26;1172;-48
2024/04/13 06:28:45;;;;;;;;;;;;;;;16.18;48.83;101584.91;5485007;26;1166;-46
2024/04/13 06:31:11;;;;;;;;;;;;;;;15.89;48.70;101580.28;5492892;26;1829;-47
2024/04/13 06:33:36;;;;;;;;;;;;;;;15.79;48.17;101580.81;5488885;25;1418;-50
2024/04/13 06:36:02;;;;;;;;;;;;;;;15.72;47.59;101582.09;5512952;26;1191;-49
2024/04/13 06:38:27;;;;;;;;;;;;;;;16.92;48.88;101587.63;5467677;26;1058;-47
2024/04/13 06:40:53;;;;;;;;;;;;;;;16.07;49.36;101580.19;5492957;26;1121;-47
2024/04/13 06:43:22;;;;;;;;;;;;;;;15.94;48.45;101580.00;5516754;26;1209;-46
2024/04/13 06:45:47;;;;;;;;;;;;;;;16.90;49.07;101578.88;5492516;26;1270;-46
2024/04/13 06:48:13;;;;;;;;;;;;;;;16.33;48.64;101585.81;5498186;26;2985;-46
2024/04/13 06:50:40;;;;;;;;;;;;;;;15.98;48.74;101582.44;5508568;26;1821;-49
2024/04/13 06:53:05;;;;;;;;;;;;;;;15.91;47.92;101589.00;5528644;26;1284;-50
2024/04/13 06:55:31;;;;;;;;;;;;;;;15.81;47.32;101582.50;5513000;26;1268;-49
2024/04/13 06:57:56;;;;;;;;;;;;;;;15.70;47.32;101578.66;5516713;26;1321;-50
2024/04/13 07:00:22;;;;;;;;;;;;;;;16.68;48.25;101587.31;5506500;26;1272;-45
2024/04/13 07:02:47;;;;;;;;;;;;;;;16.43;49.27;101586.97;5492540;26;1169;-51
2024/04/13 07:05:13;;;;;;;;;;;;;;;16.06;49.02;101582.00;5508287;26;1261;-46
2024/04/13 07:07:42;;;;;;;;;;;;;;;15.87;48.31;101583.03;5503776;26;1099;-47
2024/04/13 07:10:07;;;;;;;;;;;;;;;15.74;48.02;101588.16;5528710;26;1814;-49
2024/04/13 07:12:33;;;;;;;;;;;;;;;16.93;48.44;101592.00;5502628;26;1496;-48
2024/04/13 07:14:58;;;;;;;;;;;;;;;16.02;49.26;101577.81;5528699;26;1464;-49
2024/04/13 07:17:24;;;;;;;;;;;;;;;15.93;48.64;101583.63;5500398;26;2711;-44
2024/04/13 07:19:50;;;;;;;;;;;;;;;16.15;48.76;101581.47;5491935;26;1181;-45
2024/04/13 07:22:15;;;;;;;;;;;;;;;16.63;48.80;101585.78;5492112;26;1162;-45
2024/04/13 07:24:41;;;;;;;;;;;;;;;16.16;48.74;101587.63;5495165;26;1184;-47
2024/04/13 07:27:06;;;;;;;;;;;;;;;15.85;48.48;101574.28;5506894;26;1158;-45
2024/04/13 07:29:32;;;;;;;;;;;;;;;15.86;47.85;101577.81;5491891;26;1217;-48
2024/04/13 07:31:57;;;;;;;;;;;;;;;15.78;47.21;101573.78;5491930;26;1818;-49
2024/04/13 07:34:23;;;;;;;;;;;;;;;15.74;47.47;101572.25;5491511;26;1502;-48
2024/04/13 07:36:48;;;;;;;;;;;;;;;17.05;48.41;101578.91;5513168;26;1177;-47
2024/04/13 07:39:14;;;;;;;;;;;;;;;16.14;49.11;101569.16;5505473;26;1129;-50
2024/04/13 07:41:40;;;;;;;;;;;;;;;16.03;48.40;101561.78;5529962;26;1287;-46
2024/04/13 07:44:05;;;;;;;;;;;;;;;15.80;48.17;101549.81;5495280;26;1284;-51
2024/04/13 07:46:31;;;;;;;;;;;;;;;15.74;47.56;101551.03;5516655;26;2831;-46
2024/04/13 07:48:56;;;;;;;;;;;;;;;15.84;47.58;101555.78;5518118;26;1347;-46
2024/04/13 07:51:22;;;;;;;;;;;;;;;16.87;48.45;101560.47;5496119;26;1833;-47
2024/04/13 07:53:48;;;;;;;;;;;;;;;16.07;48.95;101551.84;5532037;26;1171;-49
2024/04/13 07:56:13;;;;;;;;;;;;;;;15.98;47.83;101545.28;5505778;26;1250;-47
2024/04/13 07:58:40;;;;;;;;;;;;;;;15.83;47.69;101546.13;5495160;26;1515;-47
2024/04/13 08:01:05;;;;;;;;;;;;;;;17.04;48.10;101553.25;5515392;26;1268;-47
2024/04/13 08:03:31;;;;;;;;;;;;;;;16.20;48.88;101548.50;5525271;26;1366;-47
2024/04/13 08:05:56;;;;;;;;;;;;;;;15.96;48.37;101540.97;5513926;26;1328;-49
2024/04/13 08:08:22;;;;;;;;;;;;;;;15.88;47.79;101538.78;5526935;26;1474;-46
2024/04/13 08:10:47;;;;;;;;;;;;;;;15.77;47.56;101542.88;5531020;26;1822;-49
2024/04/13 08:13:13;;;;;;;;;;;;;;;16.23;48.31;101537.69;5530528;26;1283;-47
2024/04/13 08:15:39;;;;;;;;;;;;;;;16.19;48.71;101534.38;5523134;26;1181;-49
2024/04/13 08:18:05;;;;;;;;;;;;;;;15.99;48.18;101532.88;5499988;26;2665;-45
2024/04/13 08:20:30;;;;;;;;;;;;;;;16.61;48.93;101537.22;5519377;26;1249;-48
2024/04/13 08:22:56;;;;;;;;;;;;;;;16.49;48.79;101533.50;5507331;26;1398;-49
2024/04/13 08:25:21;;;;;;;;;;;;;;;16.12;48.56;101530.34;5523999;26;1228;-50
2024/04/13 08:27:47;;;;;;;;;;;;;;;15.97;48.08;101535.59;5526916;26;1257;-48
2024/04/13 08:30:12;;;;;;;;;;;;;;;16.02;48.36;101530.91;5494313;26;1853;-50
2024/04/13 08:32:38;;;;;;;;;;;;;;;16.70;48.55;101534.94;5531060;26;1227;-49
2024/04/13 08:35:05;;;;;;;;;;;;;;;16.25;48.49;101530.47;5518645;26;1533;-47
2024/04/13 08:37:31;;;;;;;;;;;;;;;15.97;48.19;101529.41;5505959;26;1169;-47
2024/04/13 08:39:57;;;;;;;;;;;;;;;16.70;48.58;101525.16;5486843;26;1177;-46
2024/04/13 08:42:37;;;;;;;;;;;;;;;16.34;48.79;101524.63;5511623;26;1301;-49
2024/04/13 08:45:02;;;;;;;;;;;;;;;16.08;48.26;101523.53;5513376;26;1208;-52
2024/04/13 08:47:28;;;;;;;;;;;;;;;16.05;47.41;101521.06;5525705;26;2644;-51
2024/04/13 08:50:00;;;;;;;;;;;;;;;15.94;47.29;101522.50;5478076;26;1861;-50
2024/04/13 08:52:26;;;;;;;;;;;;;;;16.09;47.71;101518.13;5461695;26;1291;-52
2024/04/13 08:54:51;;;;;;;;;;;;;;;16.84;48.03;101523.44;5520392;26;1367;-53
2024/04/13 08:57:21;;;;;;;;;;;;;;;16.31;48.22;101511.53;5531148;26;1401;-53
2024/04/13 08:59:47;;;;;;;;;;;;;;;16.07;47.98;101509.38;5528307;26;1272;-48
2024/04/13 09:02:13;;;;;;;;;;;;;;;15.91;47.60;101504.09;5477159;26;1498;-46
2024/04/13 09:04:38;;;;;;;;;;;;;;;16.99;48.29;101511.00;5504645;26;1482;-45
2024/04/13 09:07:04;;;;;;;;;;;;;;;16.65;48.83;101511.28;5510253;26;1376;-52
2024/04/13 09:09:30;;;;;;;;;;;;;;;16.26;48.63;101509.19;5486314;26;1357;-49
2024/04/13 09:11:57;;;;;;;;;;;;;;;16.35;48.65;101499.78;5462210;26;1837;-47
2024/04/13 09:14:22;;;;;;;;;;;;;;;16.75;48.91;101506.25;5503133;26;1529;-49
2024/04/13 09:16:48;;;;;;;;;;;;;;;16.25;48.94;101502.13;5498712;26;2256;-45
2024/04/13 09:19:14;;;;;;;;;;;;;;;16.12;48.15;101494.06;5520914;26;1216;-44
2024/04/13 09:21:40;;;;;;;;;;;;;;;16.12;47.50;101499.38;5512752;26;1486;-46
2024/04/13 09:24:07;;;;;;;;;;;;;;;16.00;47.51;101487.66;5468551;26;1349;-46
2024/04/13 09:26:41;;;;;;;;;;;;;;;17.12;48.14;101490.72;5512816;26;1442;-46
2024/04/13 09:29:07;;;;;;;;;;;;;;;16.39;48.46;101497.81;5519546;26;1368;-48
2024/04/13 09:31:37;;;;;;;;;;;;;;;16.24;48.12;101494.25;5515696;26;1840;-47
2024/04/13 09:34:03;;;;;;;;;;;;;;;15.99;47.82;101490.41;5485912;26;1451;-45
2024/04/13 09:36:29;;;;;;;;;;;;;;;15.91;47.56;101488.19;5517952;26;1517;-48
2024/04/13 09:38:54;;;;;;;;;;;;;;;16.94;48.16;101484.72;5508418;26;1216;-46
2024/04/13 09:41:20;;;;;;;;;;;;;;;16.30;48.64;101479.78;5517831;26;1501;-45
2024/04/13 09:43:52;;;;;;;;;;;;;;;16.21;47.94;101486.50;5509884;26;1228;-47
2024/04/13 09:46:17;;;;;;;;;;;;;;;16.09;47.54;101478.31;5528542;26;2691;-47
2024/04/13 09:48:43;;;;;;;;;;;;;;;15.98;47.29;101486.03;5518047;26;1344;-47
2024/04/13 09:51:09;;;;;;;;;;;;;;;16.92;47.77;101476.00;5501800;26;1833;-46
2024/04/13 09:53:35;;;;;;;;;;;;;;;16.32;48.56;101480.53;5519638;26;1212;-49
2024/04/13 09:56:02;;;;;;;;;;;;;;;16.11;48.00;101478.22;5523245;26;1463;-47
2024/04/13 09:58:28;;;;;;;;;;;;;;;16.13;47.40;101471.03;5512381;26;1221;-47
2024/04/13 10:00:54;;;;;;;;;;;;;;;15.94;47.43;101468.56;5529927;26;1478;-45
2024/04/13 10:03:19;;;;;;;;;;;;;;;15.91;46.95;101466.94;5468395;26;1378;-46
2024/04/13 10:05:45;;;;;;;;;;;;;;;15.92;46.72;101466.00;5508436;26;1387;-45
2024/04/13 10:08:11;;;;;;;;;;;;;;;15.77;46.77;101470.41;5517125;26;1299;-45
2024/04/13 10:10:38;;;;;;;;;;;;;;;16.37;47.54;101465.16;5492274;26;1833;-47
2024/04/13 10:13:03;;;;;;;;;;;;;;;16.71;48.23;101464.91;5491545;26;1115;-50
2024/04/13 10:15:29;;;;;;;;;;;;;;;16.19;48.54;101462.69;5517763;26;1067;-48
2024/04/13 10:17:55;;;;;;;;;;;;;;;16.07;47.96;101461.63;5496825;26;3135;-48
2024/04/13 10:20:20;;;;;;;;;;;;;;;16.03;47.39;101449.50;5493216;26;1145;-49
2024/04/13 10:22:55;;;;;;;;;;;;;;;15.94;46.95;101448.19;5527590;26;1347;-46
2024/04/13 10:25:30;;;;;;;;;;;;;;;15.81;46.88;101449.84;5529135;26;1169;-47
2024/04/13 10:28:09;;;;;;;;;;;;;;;17.15;47.58;101451.59;5508611;26;1325;-48
2024/04/13 10:30:57;;;;;;;;;;;;;;;16.21;48.17;101452.84;5523684;26;1847;-45
2024/04/13 10:33:23;;;;;;;;;;;;;;;16.00;47.97;101450.50;5493078;26;1213;-48
2024/04/13 10:35:50;;;;;;;;;;;;;;;15.93;47.55;101441.19;5511785;25;1689;-48
2024/04/13 10:38:15;;;;;;;;;;;;;;;16.32;48.24;101451.31;5524662;26;1336;-47
2024/04/13 10:40:41;;;;;;;;;;;;;;;16.60;48.31;101447.81;5524914;26;1353;-49
2024/04/13 10:43:06;;;;;;;;;;;;;;;16.11;48.59;101451.69;5529495;26;1341;-49
2024/04/13 10:45:32;;;;;;;;;;;;;;;16.22;48.32;101456.31;5511360;26;1512;-50
2024/04/13 10:47:57;;;;;;;;;;;;;;;16.60;48.18;101449.66;5502872;26;2983;-50
2024/04/13 10:50:23;;;;;;;;;;;;;;;16.21;48.25;101438.69;5483751;26;1825;-48
2024/04/13 10:52:49;;;;;;;;;;;;;;;15.98;47.84;101444.44;5509809;26;1235;-50
2024/04/13 10:55:17;;;;;;;;;;;;;;;16.35;48.16;101444.03;5509926;26;1169;-49
2024/04/13 10:57:43;;;;;;;;;;;;;;;16.78;48.08;101442.34;5492517;26;1367;-50
2024/04/13 11:00:09;;;;;;;;;;;;;;;16.34;48.43;101449.44;5525349;26;1203;-51
2024/04/13 11:02:36;;;;;;;;;;;;;;;16.08;48.03;101438.59;5507861;26;1244;-50
2024/04/13 11:05:01;;;;;;;;;;;;;;;16.02;47.60;101453.94;5517458;26;1246;-47
2024/04/13 11:07:27;;;;;;;;;;;;;;;16.03;47.03;101438.88;5492630;26;1361;-48
2024/04/13 11:09:52;;;;;;;;;;;;;;;15.96;46.82;101434.84;5492003;26;1824;-47
2024/04/13 11:12:18;;;;;;;;;;;;;;;15.96;46.86;101441.00;5492195;26;1142;-48
2024/04/13 11:14:43;;;;;;;;;;;;;;;16.64;47.59;101437.88;5491956;26;1186;-49
2024/04/13 11:17:09;;;;;;;;;;;;;;;16.25;47.75;101424.28;5498762;26;2671;-48
2024/04/13 11:19:35;;;;;;;;;;;;;;;16.03;47.48;101439.72;5500085;26;1388;-48
2024/04/13 11:22:00;;;;;;;;;;;;;;;15.93;47.12;101432.38;5489345;26;1280;-48
2024/04/13 11:24:26;;;;;;;;;;;;;;;15.89;46.63;101431.69;5483619;26;1184;-48
2024/04/13 11:26:51;;;;;;;;;;;;;;;15.86;46.54;101435.38;5507291;26;1339;-48
2024/04/13 11:29:17;;;;;;;;;;;;;;;16.52;47.19;101435.03;5505503;26;1170;-48
2024/04/13 11:31:43;;;;;;;;;;;;;;;16.43;47.72;101432.09;5502259;26;1826;-48
2024/04/13 11:34:08;;;;;;;;;;;;;;;16.00;47.69;101431.94;5495968;26;1228;-46
2024/04/13 11:36:34;;;;;;;;;;;;;;;15.91;47.24;101419.19;5492651;25;1274;-47
2024/04/13 11:39:01;;;;;;;;;;;;;;;15.96;46.72;101421.56;5491550;26;1263;-49
2024/04/13 11:41:28;;;;;;;;;;;;;;;15.81;46.55;101421.53;5503196;26;1289;-47
2024/04/13 11:43:54;;;;;;;;;;;;;;;15.72;46.32;101427.38;5528126;26;1116;-49
2024/04/13 11:46:19;;;;;;;;;;;;;;;16.64;47.07;101432.56;5527610;26;2724;-48
2024/04/13 11:48:45;;;;;;;;;;;;;;;16.45;47.57;101428.38;5527782;26;1174;-51
2024/04/13 11:51:10;;;;;;;;;;;;;;;16.07;47.75;101429.75;5445164;26;1931;-45
2024/04/13 11:53:36;;;;;;;;;;;;;;;17.23;47.19;101426.19;5440229;26;1365;-51
2024/04/13 11:56:02;;;;;;;;;;;;;;;16.38;48.18;101421.75;5443499;26;1125;-55
2024/04/13 11:58:28;;;;;;;;;;;;;;;15.98;47.89;101427.66;5441654;26;1199;-52
2024/04/13 12:00:53;;;;;;;;;;;;;;;16.01;47.39;101411.56;5454304;26;1162;-50
2024/04/13 12:03:19;;;;;;;;;;;;;;;16.77;47.74;101408.72;5442598;26;1233;-50
2024/04/13 12:05:46;;;;;;;;;;;;;;;16.35;48.16;101411.31;5445096;26;1174;-47
2024/04/13 12:08:11;;;;;;;;;;;;;;;16.11;47.80;101414.53;5418947;26;1201;-48
2024/04/13 12:10:38;;;;;;;;;;;;;;;16.03;47.10;101407.03;5429153;26;1814;-54
2024/04/13 12:13:03;;;;;;;;;;;;;;;16.24;47.79;101411.97;5431976;26;1123;-55
2024/04/13 12:15:29;;;;;;;;;;;;;;;16.92;47.64;101408.69;5429669;26;1215;-55
2024/04/13 12:17:54;;;;;;;;;;;;;;;16.23;48.03;101410.28;5454520;26;3038;-55
2024/04/13 12:20:20;;;;;;;;;;;;;;;16.12;47.60;101413.56;5441989;26;1380;-55
2024/04/13 12:22:45;;;;;;;;;;;;;;;15.93;47.27;101406.69;5420532;26;1341;-57
2024/04/13 12:25:11;;;;;;;;;;;;;;;15.89;46.62;101403.38;5440310;26;1246;-56
2024/04/13 12:27:36;;;;;;;;;;;;;;;16.53;47.43;101396.06;5429206;26;1467;-56
2024/04/13 12:30:03;;;;;;;;;;;;;;;16.62;47.83;101389.28;5446444;26;1826;-55
2024/04/13 12:32:30;;;;;;;;;;;;;;;16.22;47.71;101395.28;5444648;26;1198;-55
2024/04/13 12:34:55;;;;;;;;;;;;;;;16.06;47.07;101390.91;5457486;26;1416;-55
2024/04/13 12:37:21;;;;;;;;;;;;;;;15.96;47.42;101397.69;5452755;26;1534;-55
2024/04/13 12:39:46;;;;;;;;;;;;;;;16.95;48.12;101395.22;5450479;26;1383;-56
2024/04/13 12:42:12;;;;;;;;;;;;;;;16.33;48.13;101395.47;5450095;26;1347;-56